sensor_id;sensor_type;location;lat;lon;timestamp;P1;durP1;ratioP1;P2;durP2;ratioP2
8857;SDS011;4465;50.904;4.696;2024-02-16T00:01:48;4.03;;;2.08;;
8857;SDS011;4465;50.904;4.696;2024-02-16T00:04:14;3.42;;;2.10;;
8857;SDS011;4465;50.904;4.696;2024-02-16T00:06:40;5.63;;;2.30;;
8857;SDS011;4465;50.904;4.696;2024-02-16T00:09:06;4.80;;;1.95;;
8857;SDS011;4465;50.904;4.696;2024-02-16T00:11:35;3.92;;;2.05;;
8857;SDS011;4465;50.904;4.696;2024-02-16T00:14:02;3.92;;;1.98;;
8857;SDS011;4465;50.904;4.696;2024-02-16T00:16:30;2.92;;;1.85;;
8857;SDS011;4465;50.904;4.696;2024-02-16T00:18:56;3.42;;;1.75;;
8857;SDS011;4465;50.904;4.696;2024-02-16T00:21:22;4.97;;;2.15;;
8857;SDS011;4465;50.904;4.696;2024-02-16T00:23:47;6.38;;;1.83;;
8857;SDS011;4465;50.904;4.696;2024-02-16T00:26:16;3.60;;;2.00;;
8857;SDS011;4465;50.904;4.696;2024-02-16T00:28:42;5.30;;;2.10;;
8857;SDS011;4465;50.904;4.696;2024-02-16T00:31:08;5.22;;;1.90;;
8857;SDS011;4465;50.904;4.696;2024-02-16T00:33:37;5.43;;;2.10;;
8857;SDS011;4465;50.904;4.696;2024-02-16T00:36:03;3.95;;;2.00;;
8857;SDS011;4465;50.904;4.696;2024-02-16T00:38:34;4.05;;;1.95;;
8857;SDS011;4465;50.904;4.696;2024-02-16T00:41:00;3.30;;;1.90;;
8857;SDS011;4465;50.904;4.696;2024-02-16T00:43:26;4.40;;;2.10;;
8857;SDS011;4465;50.904;4.696;2024-02-16T00:45:51;3.65;;;2.00;;
8857;SDS011;4465;50.904;4.696;2024-02-16T00:48:18;7.45;;;2.20;;
8857;SDS011;4465;50.904;4.696;2024-02-16T00:50:44;3.90;;;2.00;;
8857;SDS011;4465;50.904;4.696;2024-02-16T00:53:10;4.55;;;1.90;;
8857;SDS011;4465;50.904;4.696;2024-02-16T00:55:36;5.20;;;2.20;;
8857;SDS011;4465;50.904;4.696;2024-02-16T00:58:02;2.90;;;1.65;;
8857;SDS011;4465;50.904;4.696;2024-02-16T01:00:28;8.95;;;2.20;;
8857;SDS011;4465;50.904;4.696;2024-02-16T01:02:55;4.38;;;2.03;;
8857;SDS011;4465;50.904;4.696;2024-02-16T01:05:23;6.07;;;2.17;;
8857;SDS011;4465;50.904;4.696;2024-02-16T01:07:52;3.08;;;1.67;;
8857;SDS011;4465;50.904;4.696;2024-02-16T01:10:20;6.03;;;2.17;;
8857;SDS011;4465;50.904;4.696;2024-02-16T01:12:51;3.22;;;1.90;;
8857;SDS011;4465;50.904;4.696;2024-02-16T01:15:18;5.95;;;2.10;;
8857;SDS011;4465;50.904;4.696;2024-02-16T01:17:44;5.90;;;2.30;;
8857;SDS011;4465;50.904;4.696;2024-02-16T01:20:10;3.92;;;2.05;;
8857;SDS011;4465;50.904;4.696;2024-02-16T01:22:39;4.22;;;2.20;;
8857;SDS011;4465;50.904;4.696;2024-02-16T01:25:08;3.95;;;1.90;;
8857;SDS011;4465;50.904;4.696;2024-02-16T01:27:35;5.50;;;2.33;;
8857;SDS011;4465;50.904;4.696;2024-02-16T01:30:03;5.80;;;2.10;;
8857;SDS011;4465;50.904;4.696;2024-02-16T01:32:29;6.63;;;2.25;;
8857;SDS011;4465;50.904;4.696;2024-02-16T01:34:55;4.80;;;2.00;;
8857;SDS011;4465;50.904;4.696;2024-02-16T01:37:21;11.25;;;2.75;;
8857;SDS011;4465;50.904;4.696;2024-02-16T01:39:47;4.97;;;2.20;;
8857;SDS011;4465;50.904;4.696;2024-02-16T01:42:13;6.65;;;2.17;;
8857;SDS011;4465;50.904;4.696;2024-02-16T01:44:38;6.97;;;2.40;;
8857;SDS011;4465;50.904;4.696;2024-02-16T01:47:04;5.65;;;2.17;;
8857;SDS011;4465;50.904;4.696;2024-02-16T01:49:33;5.22;;;2.05;;
8857;SDS011;4465;50.904;4.696;2024-02-16T01:52:01;3.63;;;1.92;;
8857;SDS011;4465;50.904;4.696;2024-02-16T01:54:28;5.67;;;1.93;;
8857;SDS011;4465;50.904;4.696;2024-02-16T01:56:59;5.05;;;1.92;;
8857;SDS011;4465;50.904;4.696;2024-02-16T01:59:30;5.97;;;2.15;;
8857;SDS011;4465;50.904;4.696;2024-02-16T02:01:59;4.90;;;2.00;;
8857;SDS011;4465;50.904;4.696;2024-02-16T02:04:25;5.10;;;2.13;;
8857;SDS011;4465;50.904;4.696;2024-02-16T02:06:52;4.40;;;1.90;;
8857;SDS011;4465;50.904;4.696;2024-02-16T02:09:20;4.55;;;2.30;;
8857;SDS011;4465;50.904;4.696;2024-02-16T02:11:45;4.35;;;2.10;;
8857;SDS011;4465;50.904;4.696;2024-02-16T02:14:11;6.20;;;2.63;;
8857;SDS011;4465;50.904;4.696;2024-02-16T02:16:37;5.32;;;2.13;;
8857;SDS011;4465;50.904;4.696;2024-02-16T02:19:07;4.95;;;2.45;;
8857;SDS011;4465;50.904;4.696;2024-02-16T02:21:35;4.75;;;1.95;;
8857;SDS011;4465;50.904;4.696;2024-02-16T02:24:01;4.05;;;2.15;;
8857;SDS011;4465;50.904;4.696;2024-02-16T02:26:27;3.05;;;2.03;;
8857;SDS011;4465;50.904;4.696;2024-02-16T02:28:53;5.38;;;2.45;;
8857;SDS011;4465;50.904;4.696;2024-02-16T02:31:19;3.40;;;1.90;;
8857;SDS011;4465;50.904;4.696;2024-02-16T02:33:45;3.67;;;2.10;;
8857;SDS011;4465;50.904;4.696;2024-02-16T02:38:38;3.95;;;2.22;;
8857;SDS011;4465;50.904;4.696;2024-02-16T02:41:07;6.45;;;2.10;;
8857;SDS011;4465;50.904;4.696;2024-02-16T02:43:33;4.05;;;2.08;;
8857;SDS011;4465;50.904;4.696;2024-02-16T02:45:59;4.05;;;2.28;;
8857;SDS011;4465;50.904;4.696;2024-02-16T02:48:25;4.72;;;2.22;;
8857;SDS011;4465;50.904;4.696;2024-02-16T02:50:51;6.97;;;2.35;;
8857;SDS011;4465;50.904;4.696;2024-02-16T02:53:19;5.40;;;1.95;;
8857;SDS011;4465;50.904;4.696;2024-02-16T02:55:48;4.40;;;2.10;;
8857;SDS011;4465;50.904;4.696;2024-02-16T02:58:16;6.10;;;2.38;;
8857;SDS011;4465;50.904;4.696;2024-02-16T03:00:45;5.97;;;2.75;;
8857;SDS011;4465;50.904;4.696;2024-02-16T03:03:11;4.07;;;2.15;;
8857;SDS011;4465;50.904;4.696;2024-02-16T03:05:40;4.45;;;2.22;;
8857;SDS011;4465;50.904;4.696;2024-02-16T03:08:07;6.63;;;2.22;;
8857;SDS011;4465;50.904;4.696;2024-02-16T03:10:38;6.20;;;2.22;;
8857;SDS011;4465;50.904;4.696;2024-02-16T03:13:04;4.00;;;2.10;;
8857;SDS011;4465;50.904;4.696;2024-02-16T03:15:32;6.28;;;1.77;;
8857;SDS011;4465;50.904;4.696;2024-02-16T03:17:58;5.97;;;2.27;;
8857;SDS011;4465;50.904;4.696;2024-02-16T03:20:24;5.05;;;2.20;;
8857;SDS011;4465;50.904;4.696;2024-02-16T03:22:52;5.22;;;2.30;;
8857;SDS011;4465;50.904;4.696;2024-02-16T03:25:18;6.10;;;2.60;;
8857;SDS011;4465;50.904;4.696;2024-02-16T03:27:45;6.93;;;2.22;;
8857;SDS011;4465;50.904;4.696;2024-02-16T03:30:11;5.55;;;2.10;;
8857;SDS011;4465;50.904;4.696;2024-02-16T03:32:39;4.45;;;2.25;;
8857;SDS011;4465;50.904;4.696;2024-02-16T03:35:07;5.47;;;2.47;;
8857;SDS011;4465;50.904;4.696;2024-02-16T03:37:36;3.22;;;1.83;;
8857;SDS011;4465;50.904;4.696;2024-02-16T03:40:04;5.30;;;2.60;;
8857;SDS011;4465;50.904;4.696;2024-02-16T03:42:33;6.78;;;2.00;;
8857;SDS011;4465;50.904;4.696;2024-02-16T03:45:02;4.90;;;2.60;;
8857;SDS011;4465;50.904;4.696;2024-02-16T03:47:28;5.13;;;2.30;;
8857;SDS011;4465;50.904;4.696;2024-02-16T03:49:54;6.05;;;2.50;;
8857;SDS011;4465;50.904;4.696;2024-02-16T03:52:20;7.13;;;2.42;;
8857;SDS011;4465;50.904;4.696;2024-02-16T03:54:46;3.95;;;2.33;;
8857;SDS011;4465;50.904;4.696;2024-02-16T03:57:14;4.72;;;2.30;;
8857;SDS011;4465;50.904;4.696;2024-02-16T03:59:45;5.38;;;2.67;;
8857;SDS011;4465;50.904;4.696;2024-02-16T04:02:13;5.63;;;2.40;;
8857;SDS011;4465;50.904;4.696;2024-02-16T04:04:42;5.32;;;2.10;;
8857;SDS011;4465;50.904;4.696;2024-02-16T04:07:10;13.13;;;3.40;;
8857;SDS011;4465;50.904;4.696;2024-02-16T04:09:36;4.38;;;2.45;;
8857;SDS011;4465;50.904;4.696;2024-02-16T04:12:02;4.95;;;2.20;;
8857;SDS011;4465;50.904;4.696;2024-02-16T04:14:32;4.07;;;2.20;;
8857;SDS011;4465;50.904;4.696;2024-02-16T04:17:01;4.03;;;2.15;;
8857;SDS011;4465;50.904;4.696;2024-02-16T04:19:27;5.47;;;2.45;;
8857;SDS011;4465;50.904;4.696;2024-02-16T04:21:55;7.25;;;2.90;;
8857;SDS011;4465;50.904;4.696;2024-02-16T04:24:21;5.50;;;2.50;;
8857;SDS011;4465;50.904;4.696;2024-02-16T04:26:49;7.85;;;2.75;;
8857;SDS011;4465;50.904;4.696;2024-02-16T04:29:15;6.05;;;2.40;;
8857;SDS011;4465;50.904;4.696;2024-02-16T04:31:41;15.98;;;2.85;;
8857;SDS011;4465;50.904;4.696;2024-02-16T04:34:08;4.88;;;2.42;;
8857;SDS011;4465;50.904;4.696;2024-02-16T04:36:34;5.07;;;2.22;;
8857;SDS011;4465;50.904;4.696;2024-02-16T04:39:02;4.78;;;2.40;;
8857;SDS011;4465;50.904;4.696;2024-02-16T04:41:31;6.03;;;2.50;;
8857;SDS011;4465;50.904;4.696;2024-02-16T04:43:57;6.32;;;2.30;;
8857;SDS011;4465;50.904;4.696;2024-02-16T04:46:23;5.68;;;2.40;;
8857;SDS011;4465;50.904;4.696;2024-02-16T04:48:51;7.38;;;2.60;;
8857;SDS011;4465;50.904;4.696;2024-02-16T04:51:17;3.85;;;2.33;;
8857;SDS011;4465;50.904;4.696;2024-02-16T04:53:43;7.13;;;2.45;;
8857;SDS011;4465;50.904;4.696;2024-02-16T04:56:09;7.10;;;2.60;;
8857;SDS011;4465;50.904;4.696;2024-02-16T04:58:35;5.57;;;2.58;;
8857;SDS011;4465;50.904;4.696;2024-02-16T05:01:05;8.73;;;2.50;;
8857;SDS011;4465;50.904;4.696;2024-02-16T05:03:32;7.57;;;2.38;;
8857;SDS011;4465;50.904;4.696;2024-02-16T05:05:59;6.22;;;2.42;;
8857;SDS011;4465;50.904;4.696;2024-02-16T05:08:28;6.95;;;2.45;;
8857;SDS011;4465;50.904;4.696;2024-02-16T05:10:54;9.05;;;3.40;;
8857;SDS011;4465;50.904;4.696;2024-02-16T05:13:22;6.32;;;2.58;;
8857;SDS011;4465;50.904;4.696;2024-02-16T05:15:49;8.50;;;3.00;;
8857;SDS011;4465;50.904;4.696;2024-02-16T05:18:23;8.80;;;2.83;;
8857;SDS011;4465;50.904;4.696;2024-02-16T05:20:50;5.82;;;2.55;;
8857;SDS011;4465;50.904;4.696;2024-02-16T05:23:16;6.55;;;3.47;;
8857;SDS011;4465;50.904;4.696;2024-02-16T05:25:42;4.85;;;2.33;;
8857;SDS011;4465;50.904;4.696;2024-02-16T05:28:10;6.97;;;2.83;;
8857;SDS011;4465;50.904;4.696;2024-02-16T05:30:40;4.82;;;2.42;;
8857;SDS011;4465;50.904;4.696;2024-02-16T05:33:06;5.18;;;2.35;;
8857;SDS011;4465;50.904;4.696;2024-02-16T05:35:36;5.85;;;2.58;;
8857;SDS011;4465;50.904;4.696;2024-02-16T05:38:05;5.90;;;2.55;;
8857;SDS011;4465;50.904;4.696;2024-02-16T05:40:49;4.43;;;2.33;;
8857;SDS011;4465;50.904;4.696;2024-02-16T05:43:22;4.40;;;2.40;;
8857;SDS011;4465;50.904;4.696;2024-02-16T05:45:49;3.05;;;2.10;;
8857;SDS011;4465;50.904;4.696;2024-02-16T05:48:17;9.00;;;3.17;;
8857;SDS011;4465;50.904;4.696;2024-02-16T05:50:44;4.20;;;2.50;;
8857;SDS011;4465;50.904;4.696;2024-02-16T05:53:13;6.50;;;2.40;;
8857;SDS011;4465;50.904;4.696;2024-02-16T05:55:39;11.15;;;2.78;;
8857;SDS011;4465;50.904;4.696;2024-02-16T05:58:07;4.32;;;2.70;;
8857;SDS011;4465;50.904;4.696;2024-02-16T06:00:33;12.07;;;2.60;;
8857;SDS011;4465;50.904;4.696;2024-02-16T06:03:00;5.50;;;2.53;;
8857;SDS011;4465;50.904;4.696;2024-02-16T06:05:28;6.45;;;2.58;;
8857;SDS011;4465;50.904;4.696;2024-02-16T06:07:54;4.38;;;2.45;;
8857;SDS011;4465;50.904;4.696;2024-02-16T06:10:27;8.70;;;2.50;;
8857;SDS011;4465;50.904;4.696;2024-02-16T06:12:53;4.20;;;2.13;;
8857;SDS011;4465;50.904;4.696;2024-02-16T06:15:19;11.63;;;3.13;;
8857;SDS011;4465;50.904;4.696;2024-02-16T06:17:50;5.43;;;2.50;;
8857;SDS011;4465;50.904;4.696;2024-02-16T06:20:16;8.85;;;3.05;;
8857;SDS011;4465;50.904;4.696;2024-02-16T06:22:45;6.32;;;3.03;;
8857;SDS011;4465;50.904;4.696;2024-02-16T06:25:13;9.90;;;3.03;;
8857;SDS011;4465;50.904;4.696;2024-02-16T06:27:42;7.30;;;2.97;;
8857;SDS011;4465;50.904;4.696;2024-02-16T06:30:08;5.57;;;2.90;;
8857;SDS011;4465;50.904;4.696;2024-02-16T06:32:38;6.32;;;3.03;;
8857;SDS011;4465;50.904;4.696;2024-02-16T06:35:06;6.70;;;2.50;;
8857;SDS011;4465;50.904;4.696;2024-02-16T06:40:01;5.00;;;2.90;;
8857;SDS011;4465;50.904;4.696;2024-02-16T06:42:29;9.65;;;2.90;;
8857;SDS011;4465;50.904;4.696;2024-02-16T06:44:56;7.60;;;2.55;;
8857;SDS011;4465;50.904;4.696;2024-02-16T06:47:21;7.10;;;2.70;;
8857;SDS011;4465;50.904;4.696;2024-02-16T06:49:51;8.60;;;3.10;;
8857;SDS011;4465;50.904;4.696;2024-02-16T06:52:17;6.43;;;2.53;;
8857;SDS011;4465;50.904;4.696;2024-02-16T06:54:43;7.15;;;2.83;;
8857;SDS011;4465;50.904;4.696;2024-02-16T06:57:14;9.10;;;3.10;;
8857;SDS011;4465;50.904;4.696;2024-02-16T06:59:40;7.60;;;2.90;;
8857;SDS011;4465;50.904;4.696;2024-02-16T07:02:06;7.15;;;3.22;;
8857;SDS011;4465;50.904;4.696;2024-02-16T07:04:32;6.28;;;3.13;;
8857;SDS011;4465;50.904;4.696;2024-02-16T07:06:59;4.68;;;2.90;;
8857;SDS011;4465;50.904;4.696;2024-02-16T07:09:25;6.13;;;2.55;;
8857;SDS011;4465;50.904;4.696;2024-02-16T07:11:51;16.70;;;3.40;;
8857;SDS011;4465;50.904;4.696;2024-02-16T07:14:20;7.13;;;3.30;;
8857;SDS011;4465;50.904;4.696;2024-02-16T07:16:46;8.55;;;3.17;;
8857;SDS011;4465;50.904;4.696;2024-02-16T07:19:11;7.35;;;3.05;;
8857;SDS011;4465;50.904;4.696;2024-02-16T07:21:38;6.30;;;2.85;;
8857;SDS011;4465;50.904;4.696;2024-02-16T07:24:04;5.50;;;2.42;;
8857;SDS011;4465;50.904;4.696;2024-02-16T07:26:30;6.93;;;3.05;;
8857;SDS011;4465;50.904;4.696;2024-02-16T07:28:58;9.73;;;2.90;;
8857;SDS011;4465;50.904;4.696;2024-02-16T07:31:30;8.77;;;2.88;;
8857;SDS011;4465;50.904;4.696;2024-02-16T07:34:02;11.70;;;3.20;;
8857;SDS011;4465;50.904;4.696;2024-02-16T07:36:28;6.97;;;2.95;;
8857;SDS011;4465;50.904;4.696;2024-02-16T07:38:59;10.68;;;3.03;;
8857;SDS011;4465;50.904;4.696;2024-02-16T07:41:25;8.95;;;3.58;;
8857;SDS011;4465;50.904;4.696;2024-02-16T07:43:53;5.35;;;3.03;;
8857;SDS011;4465;50.904;4.696;2024-02-16T07:46:22;10.70;;;3.20;;
8857;SDS011;4465;50.904;4.696;2024-02-16T07:48:50;7.05;;;3.03;;
8857;SDS011;4465;50.904;4.696;2024-02-16T07:51:19;8.50;;;3.08;;
8857;SDS011;4465;50.904;4.696;2024-02-16T07:53:47;6.72;;;2.72;;
8857;SDS011;4465;50.904;4.696;2024-02-16T07:56:13;10.57;;;3.50;;
8857;SDS011;4465;50.904;4.696;2024-02-16T07:58:44;9.55;;;3.25;;
8857;SDS011;4465;50.904;4.696;2024-02-16T08:01:11;10.48;;;3.42;;
8857;SDS011;4465;50.904;4.696;2024-02-16T08:03:40;5.22;;;2.95;;
8857;SDS011;4465;50.904;4.696;2024-02-16T08:06:06;7.75;;;2.65;;
8857;SDS011;4465;50.904;4.696;2024-02-16T08:08:32;6.38;;;2.95;;
8857;SDS011;4465;50.904;4.696;2024-02-16T08:10:58;12.23;;;3.05;;
8857;SDS011;4465;50.904;4.696;2024-02-16T08:13:24;7.63;;;2.95;;
8857;SDS011;4465;50.904;4.696;2024-02-16T08:15:50;8.23;;;2.78;;
8857;SDS011;4465;50.904;4.696;2024-02-16T08:18:17;7.32;;;3.20;;
8857;SDS011;4465;50.904;4.696;2024-02-16T08:20:43;9.95;;;3.10;;
8857;SDS011;4465;50.904;4.696;2024-02-16T08:23:09;6.90;;;3.75;;
8857;SDS011;4465;50.904;4.696;2024-02-16T08:25:37;7.60;;;3.00;;
8857;SDS011;4465;50.904;4.696;2024-02-16T08:28:03;10.65;;;3.08;;
8857;SDS011;4465;50.904;4.696;2024-02-16T08:30:30;10.95;;;3.47;;
8857;SDS011;4465;50.904;4.696;2024-02-16T08:32:56;7.68;;;3.25;;
8857;SDS011;4465;50.904;4.696;2024-02-16T08:35:26;7.25;;;3.50;;
8857;SDS011;4465;50.904;4.696;2024-02-16T08:37:51;13.23;;;3.30;;
8857;SDS011;4465;50.904;4.696;2024-02-16T08:40:19;7.15;;;3.50;;
8857;SDS011;4465;50.904;4.696;2024-02-16T08:42:45;9.68;;;3.88;;
8857;SDS011;4465;50.904;4.696;2024-02-16T08:45:12;9.35;;;3.13;;
8857;SDS011;4465;50.904;4.696;2024-02-16T08:47:38;8.07;;;3.28;;
8857;SDS011;4465;50.904;4.696;2024-02-16T08:50:05;13.07;;;3.72;;
8857;SDS011;4465;50.904;4.696;2024-02-16T08:52:37;6.30;;;2.72;;
8857;SDS011;4465;50.904;4.696;2024-02-16T08:55:03;10.18;;;3.30;;
8857;SDS011;4465;50.904;4.696;2024-02-16T08:57:31;9.30;;;3.55;;
8857;SDS011;4465;50.904;4.696;2024-02-16T08:59:57;8.55;;;3.35;;
8857;SDS011;4465;50.904;4.696;2024-02-16T09:02:23;8.07;;;3.22;;
8857;SDS011;4465;50.904;4.696;2024-02-16T09:04:51;7.20;;;2.78;;
8857;SDS011;4465;50.904;4.696;2024-02-16T09:07:21;7.88;;;3.17;;
8857;SDS011;4465;50.904;4.696;2024-02-16T09:09:50;8.50;;;3.10;;
8857;SDS011;4465;50.904;4.696;2024-02-16T09:12:16;10.95;;;3.53;;
8857;SDS011;4465;50.904;4.696;2024-02-16T09:14:44;10.27;;;3.70;;
8857;SDS011;4465;50.904;4.696;2024-02-16T09:17:13;9.27;;;3.10;;
8857;SDS011;4465;50.904;4.696;2024-02-16T09:19:39;8.30;;;3.17;;
8857;SDS011;4465;50.904;4.696;2024-02-16T09:22:05;8.30;;;3.40;;
8857;SDS011;4465;50.904;4.696;2024-02-16T09:24:33;10.13;;;3.03;;
8857;SDS011;4465;50.904;4.696;2024-02-16T09:27:00;7.30;;;3.30;;
8857;SDS011;4465;50.904;4.696;2024-02-16T09:29:28;10.70;;;3.88;;
8857;SDS011;4465;50.904;4.696;2024-02-16T09:31:55;7.93;;;3.22;;
8857;SDS011;4465;50.904;4.696;2024-02-16T09:34:21;11.50;;;4.20;;
8857;SDS011;4465;50.904;4.696;2024-02-16T09:36:46;15.52;;;4.43;;
8857;SDS011;4465;50.904;4.696;2024-02-16T09:39:15;9.50;;;3.30;;
8857;SDS011;4465;50.904;4.696;2024-02-16T09:41:43;11.02;;;3.72;;
8857;SDS011;4465;50.904;4.696;2024-02-16T09:44:23;9.10;;;3.90;;
8857;SDS011;4465;50.904;4.696;2024-02-16T09:46:49;7.50;;;3.47;;
8857;SDS011;4465;50.904;4.696;2024-02-16T09:49:17;9.60;;;3.70;;
8857;SDS011;4465;50.904;4.696;2024-02-16T09:51:43;8.77;;;3.60;;
8857;SDS011;4465;50.904;4.696;2024-02-16T09:54:11;9.52;;;3.20;;
8857;SDS011;4465;50.904;4.696;2024-02-16T09:56:37;11.52;;;3.65;;
8857;SDS011;4465;50.904;4.696;2024-02-16T09:59:03;7.85;;;3.30;;
8857;SDS011;4465;50.904;4.696;2024-02-16T10:01:29;8.27;;;3.95;;
8857;SDS011;4465;50.904;4.696;2024-02-16T10:04:06;14.27;;;3.75;;
8857;SDS011;4465;50.904;4.696;2024-02-16T10:06:47;10.85;;;4.15;;
8857;SDS011;4465;50.904;4.696;2024-02-16T10:09:21;14.00;;;4.78;;
8857;SDS011;4465;50.904;4.696;2024-02-16T10:11:49;11.02;;;3.95;;
8857;SDS011;4465;50.904;4.696;2024-02-16T10:14:17;11.13;;;4.50;;
8857;SDS011;4465;50.904;4.696;2024-02-16T10:16:47;9.25;;;4.00;;
8857;SDS011;4465;50.904;4.696;2024-02-16T10:19:13;15.45;;;4.07;;
8857;SDS011;4465;50.904;4.696;2024-02-16T10:21:45;11.52;;;4.22;;
8857;SDS011;4465;50.904;4.696;2024-02-16T10:24:11;11.30;;;4.18;;
8857;SDS011;4465;50.904;4.696;2024-02-16T10:26:42;11.52;;;3.95;;
8857;SDS011;4465;50.904;4.696;2024-02-16T10:29:08;10.35;;;4.82;;
8857;SDS011;4465;50.904;4.696;2024-02-16T10:31:39;12.43;;;4.85;;
8857;SDS011;4465;50.904;4.696;2024-02-16T10:34:05;11.77;;;4.20;;
8857;SDS011;4465;50.904;4.696;2024-02-16T10:36:34;13.73;;;4.45;;
8857;SDS011;4465;50.904;4.696;2024-02-16T10:39:02;12.80;;;5.00;;
8857;SDS011;4465;50.904;4.696;2024-02-16T10:41:42;12.43;;;4.50;;
8857;SDS011;4465;50.904;4.696;2024-02-16T10:44:09;9.85;;;4.35;;
8857;SDS011;4465;50.904;4.696;2024-02-16T10:46:36;8.32;;;4.07;;
8857;SDS011;4465;50.904;4.696;2024-02-16T10:49:04;16.63;;;5.50;;
8857;SDS011;4465;50.904;4.696;2024-02-16T10:51:34;14.50;;;5.07;;
8857;SDS011;4465;50.904;4.696;2024-02-16T10:54:07;11.35;;;4.90;;
8857;SDS011;4465;50.904;4.696;2024-02-16T10:59:05;14.02;;;5.22;;
8857;SDS011;4465;50.904;4.696;2024-02-16T11:01:43;18.48;;;5.82;;
8857;SDS011;4465;50.904;4.696;2024-02-16T11:04:13;15.80;;;5.10;;
8857;SDS011;4465;50.904;4.696;2024-02-16T11:06:47;15.73;;;5.20;;
8857;SDS011;4465;50.904;4.696;2024-02-16T11:09:26;16.17;;;4.93;;
8857;SDS011;4465;50.904;4.696;2024-02-16T11:12:00;15.32;;;5.03;;
8857;SDS011;4465;50.904;4.696;2024-02-16T11:17:08;10.48;;;5.32;;
8857;SDS011;4465;50.904;4.696;2024-02-16T11:19:47;17.00;;;5.20;;
8857;SDS011;4465;50.904;4.696;2024-02-16T11:22:17;10.65;;;4.70;;
8857;SDS011;4465;50.904;4.696;2024-02-16T11:24:46;9.43;;;5.20;;
8857;SDS011;4465;50.904;4.696;2024-02-16T11:27:14;16.95;;;5.78;;
8857;SDS011;4465;50.904;4.696;2024-02-16T11:29:44;11.30;;;5.57;;
8857;SDS011;4465;50.904;4.696;2024-02-16T11:32:11;14.02;;;5.32;;
8857;SDS011;4465;50.904;4.696;2024-02-16T11:34:37;13.35;;;5.20;;
8857;SDS011;4465;50.904;4.696;2024-02-16T11:37:03;15.57;;;6.22;;
8857;SDS011;4465;50.904;4.696;2024-02-16T11:39:33;17.67;;;5.82;;
8857;SDS011;4465;50.904;4.696;2024-02-16T11:42:06;10.32;;;4.80;;
8857;SDS011;4465;50.904;4.696;2024-02-16T11:44:35;18.67;;;5.32;;
8857;SDS011;4465;50.904;4.696;2024-02-16T11:47:02;11.63;;;4.70;;
8857;SDS011;4465;50.904;4.696;2024-02-16T11:49:29;12.70;;;4.93;;
8857;SDS011;4465;50.904;4.696;2024-02-16T11:51:55;11.48;;;5.57;;
8857;SDS011;4465;50.904;4.696;2024-02-16T11:54:29;11.77;;;5.18;;
8857;SDS011;4465;50.904;4.696;2024-02-16T11:56:57;10.25;;;5.30;;
8857;SDS011;4465;50.904;4.696;2024-02-16T11:59:23;13.55;;;5.97;;
8857;SDS011;4465;50.904;4.696;2024-02-16T12:01:56;10.85;;;4.95;;
8857;SDS011;4465;50.904;4.696;2024-02-16T12:04:24;18.95;;;5.57;;
8857;SDS011;4465;50.904;4.696;2024-02-16T12:06:57;11.15;;;5.22;;
8857;SDS011;4465;50.904;4.696;2024-02-16T12:09:24;11.82;;;5.75;;
8857;SDS011;4465;50.904;4.696;2024-02-16T12:11:50;11.05;;;5.45;;
8857;SDS011;4465;50.904;4.696;2024-02-16T12:14:23;15.60;;;5.88;;
8857;SDS011;4465;50.904;4.696;2024-02-16T12:19:16;11.53;;;5.67;;
8857;SDS011;4465;50.904;4.696;2024-02-16T12:21:56;11.80;;;5.15;;
8857;SDS011;4465;50.904;4.696;2024-02-16T12:24:26;10.77;;;5.80;;
8857;SDS011;4465;50.904;4.696;2024-02-16T12:26:51;10.40;;;5.60;;
8857;SDS011;4465;50.904;4.696;2024-02-16T12:29:17;15.27;;;5.70;;
8857;SDS011;4465;50.904;4.696;2024-02-16T12:31:44;11.20;;;5.13;;
8857;SDS011;4465;50.904;4.696;2024-02-16T12:34:14;8.32;;;4.85;;
8857;SDS011;4465;50.904;4.696;2024-02-16T12:36:42;13.13;;;5.80;;
8857;SDS011;4465;50.904;4.696;2024-02-16T12:39:08;12.00;;;5.78;;
8857;SDS011;4465;50.904;4.696;2024-02-16T12:41:38;14.77;;;5.57;;
8857;SDS011;4465;50.904;4.696;2024-02-16T12:44:06;14.27;;;6.40;;
8857;SDS011;4465;50.904;4.696;2024-02-16T12:46:32;11.77;;;5.60;;
8857;SDS011;4465;50.904;4.696;2024-02-16T12:48:59;11.65;;;5.22;;
8857;SDS011;4465;50.904;4.696;2024-02-16T12:51:29;9.65;;;4.88;;
8857;SDS011;4465;50.904;4.696;2024-02-16T12:53:55;9.30;;;4.97;;
8857;SDS011;4465;50.904;4.696;2024-02-16T12:56:21;9.30;;;4.70;;
8857;SDS011;4465;50.904;4.696;2024-02-16T12:58:47;7.90;;;4.13;;
8857;SDS011;4465;50.904;4.696;2024-02-16T13:01:13;7.50;;;4.22;;
8857;SDS011;4465;50.904;4.696;2024-02-16T13:03:39;6.93;;;3.83;;
8857;SDS011;4465;50.904;4.696;2024-02-16T13:06:05;9.38;;;4.38;;
8857;SDS011;4465;50.904;4.696;2024-02-16T13:08:34;8.00;;;4.20;;
8857;SDS011;4465;50.904;4.696;2024-02-16T13:11:00;9.55;;;4.05;;
8857;SDS011;4465;50.904;4.696;2024-02-16T13:13:28;10.30;;;4.70;;
8857;SDS011;4465;50.904;4.696;2024-02-16T13:15:56;7.22;;;4.43;;
8857;SDS011;4465;50.904;4.696;2024-02-16T13:18:24;9.05;;;4.38;;
8857;SDS011;4465;50.904;4.696;2024-02-16T13:20:52;7.47;;;4.60;;
8857;SDS011;4465;50.904;4.696;2024-02-16T13:23:20;11.95;;;5.53;;
8857;SDS011;4465;50.904;4.696;2024-02-16T13:25:47;10.15;;;5.57;;
8857;SDS011;4465;50.904;4.696;2024-02-16T13:28:15;10.07;;;5.10;;
8857;SDS011;4465;50.904;4.696;2024-02-16T13:30:41;8.82;;;4.60;;
8857;SDS011;4465;50.904;4.696;2024-02-16T13:33:09;9.20;;;5.07;;
8857;SDS011;4465;50.904;4.696;2024-02-16T13:35:37;9.68;;;4.90;;
8857;SDS011;4465;50.904;4.696;2024-02-16T13:38:04;8.83;;;5.30;;
8857;SDS011;4465;50.904;4.696;2024-02-16T13:40:30;9.20;;;5.00;;
8857;SDS011;4465;50.904;4.696;2024-02-16T13:42:56;8.38;;;4.95;;
8857;SDS011;4465;50.904;4.696;2024-02-16T13:45:30;10.30;;;5.10;;
8857;SDS011;4465;50.904;4.696;2024-02-16T13:48:25;10.05;;;5.88;;
8857;SDS011;4465;50.904;4.696;2024-02-16T13:50:51;10.45;;;5.53;;
8857;SDS011;4465;50.904;4.696;2024-02-16T13:53:21;8.95;;;5.28;;
8857;SDS011;4465;50.904;4.696;2024-02-16T13:55:49;13.32;;;5.05;;
8857;SDS011;4465;50.904;4.696;2024-02-16T13:58:15;9.05;;;5.15;;
8857;SDS011;4465;50.904;4.696;2024-02-16T14:00:41;8.70;;;5.20;;
8857;SDS011;4465;50.904;4.696;2024-02-16T14:03:08;12.10;;;6.50;;
8857;SDS011;4465;50.904;4.696;2024-02-16T14:05:36;11.18;;;6.35;;
8857;SDS011;4465;50.904;4.696;2024-02-16T14:08:07;12.38;;;6.75;;
8857;SDS011;4465;50.904;4.696;2024-02-16T14:10:39;13.93;;;7.13;;
8857;SDS011;4465;50.904;4.696;2024-02-16T14:13:10;15.43;;;7.90;;
8857;SDS011;4465;50.904;4.696;2024-02-16T14:15:36;12.38;;;6.60;;
8857;SDS011;4465;50.904;4.696;2024-02-16T14:18:02;15.15;;;8.23;;
8857;SDS011;4465;50.904;4.696;2024-02-16T14:20:32;14.55;;;7.78;;
8857;SDS011;4465;50.904;4.696;2024-02-16T14:23:00;15.77;;;8.30;;
8857;SDS011;4465;50.904;4.696;2024-02-16T14:25:29;15.82;;;8.93;;
8857;SDS011;4465;50.904;4.696;2024-02-16T14:28:00;14.85;;;8.45;;
8857;SDS011;4465;50.904;4.696;2024-02-16T14:30:26;15.40;;;8.27;;
8857;SDS011;4465;50.904;4.696;2024-02-16T14:32:52;15.80;;;8.63;;
8857;SDS011;4465;50.904;4.696;2024-02-16T14:35:20;17.10;;;7.82;;
8857;SDS011;4465;50.904;4.696;2024-02-16T14:37:48;14.32;;;8.98;;
8857;SDS011;4465;50.904;4.696;2024-02-16T14:40:14;16.20;;;9.05;;
8857;SDS011;4465;50.904;4.696;2024-02-16T14:42:43;16.10;;;8.82;;
8857;SDS011;4465;50.904;4.696;2024-02-16T14:45:09;13.43;;;7.93;;
8857;SDS011;4465;50.904;4.696;2024-02-16T14:47:44;15.57;;;8.27;;
8857;SDS011;4465;50.904;4.696;2024-02-16T14:50:15;15.82;;;7.95;;
8857;SDS011;4465;50.904;4.696;2024-02-16T14:52:42;13.38;;;7.60;;
8857;SDS011;4465;50.904;4.696;2024-02-16T14:55:13;11.23;;;6.40;;
8857;SDS011;4465;50.904;4.696;2024-02-16T14:57:39;7.53;;;5.22;;
8857;SDS011;4465;50.904;4.696;2024-02-16T15:00:06;8.00;;;5.40;;
8857;SDS011;4465;50.904;4.696;2024-02-16T15:02:35;8.45;;;5.32;;
8857;SDS011;4465;50.904;4.696;2024-02-16T15:05:08;9.32;;;5.88;;
8857;SDS011;4465;50.904;4.696;2024-02-16T15:07:35;10.80;;;5.82;;
8857;SDS011;4465;50.904;4.696;2024-02-16T15:10:01;10.80;;;6.53;;
8857;SDS011;4465;50.904;4.696;2024-02-16T15:12:28;10.57;;;6.35;;
8857;SDS011;4465;50.904;4.696;2024-02-16T15:14:54;11.82;;;7.05;;
8857;SDS011;4465;50.904;4.696;2024-02-16T15:17:20;12.52;;;7.20;;
8857;SDS011;4465;50.904;4.696;2024-02-16T15:19:47;12.75;;;7.35;;
8857;SDS011;4465;50.904;4.696;2024-02-16T15:22:16;17.25;;;9.57;;
8857;SDS011;4465;50.904;4.696;2024-02-16T15:24:42;16.75;;;8.98;;
8857;SDS011;4465;50.904;4.696;2024-02-16T15:27:10;23.73;;;11.15;;